createdAt,value
2017-07-30T00:00:21.446Z,86.00
2017-07-30T00:02:49.200Z,86.00
2017-07-30T00:05:17.164Z,86.80
2017-07-30T00:07:45.011Z,86.30
2017-07-30T00:10:12.597Z,86.90
2017-07-30T00:12:40.545Z,86.40
2017-07-30T00:15:08.072Z,86.60
2017-07-30T00:17:35.655Z,86.70
2017-07-30T00:20:03.296Z,86.60
2017-07-30T00:22:30.827Z,86.50
2017-07-30T00:24:58.400Z,86.20
2017-07-30T00:27:26.137Z,86.50
2017-07-30T00:29:53.663Z,86.40
2017-07-30T00:32:21.249Z,86.40
2017-07-30T00:34:48.849Z,86.30
2017-07-30T00:37:16.385Z,86.30
2017-07-30T00:39:43.967Z,86.20
2017-07-30T00:42:11.645Z,86.10
2017-07-30T00:44:39.217Z,86.00
2017-07-30T00:47:06.787Z,85.40
2017-07-30T00:49:34.538Z,85.20
2017-07-30T00:52:02.098Z,85.10
2017-07-30T00:54:29.695Z,85.10
2017-07-30T00:56:57.255Z,85.20
2017-07-30T00:59:24.829Z,85.30
2017-07-30T01:01:53.075Z,85.60
2017-07-30T01:04:20.718Z,85.40
2017-07-30T01:06:48.262Z,85.60
2017-07-30T01:09:15.827Z,85.50
2017-07-30T01:11:43.399Z,85.50
2017-07-30T01:14:10.939Z,85.10
2017-07-30T01:16:38.500Z,85.00
2017-07-30T01:19:06.097Z,84.70
2017-07-30T01:21:33.723Z,83.70
2017-07-30T01:24:01.266Z,83.20
2017-07-30T01:26:29.008Z,82.50
2017-07-30T01:28:57.301Z,80.40
2017-07-30T01:31:24.855Z,80.40
2017-07-30T01:33:52.455Z,80.10
2017-07-30T01:36:19.955Z,80.00
2017-07-30T01:38:47.629Z,80.20
2017-07-30T01:41:15.252Z,80.50
2017-07-30T01:43:42.779Z,80.60
2017-07-30T01:46:10.365Z,80.00
2017-07-30T01:48:37.967Z,79.90
2017-07-30T01:51:06.297Z,79.60
2017-07-30T01:53:33.840Z,79.70
2017-07-30T01:56:01.550Z,78.90
2017-07-30T01:58:29.859Z,79.00
2017-07-30T02:00:57.378Z,79.00
2017-07-30T02:03:24.956Z,78.90
2017-07-30T02:05:52.529Z,79.20
2017-07-30T02:08:20.071Z,79.60
2017-07-30T02:10:48.425Z,80.00
2017-07-30T02:13:15.966Z,80.10
2017-07-30T02:15:43.495Z,80.10
2017-07-30T02:18:11.241Z,79.70
2017-07-30T02:20:38.778Z,79.90
2017-07-30T02:23:06.354Z,80.40
2017-07-30T02:25:34.882Z,81.10
2017-07-30T02:28:02.378Z,81.10
2017-07-30T02:30:29.954Z,81.40
2017-07-30T02:32:58.432Z,82.00
2017-07-30T02:35:25.963Z,82.00
2017-07-30T02:37:53.535Z,82.50
2017-07-30T02:40:21.136Z,82.00
2017-07-30T02:42:48.657Z,82.00
2017-07-30T02:45:16.173Z,82.10
2017-07-30T02:47:43.740Z,82.20
2017-07-30T02:50:11.310Z,82.10
2017-07-30T02:52:38.849Z,82.10
2017-07-30T02:55:06.434Z,82.10
2017-07-30T02:57:34.024Z,81.60
2017-07-30T03:00:01.580Z,81.60
2017-07-30T03:02:29.168Z,81.60
2017-07-30T03:04:56.828Z,81.80
2017-07-30T03:07:24.398Z,81.90
2017-07-30T03:09:51.978Z,81.50
2017-07-30T03:12:19.568Z,81.50
2017-07-30T03:14:47.147Z,81.50
2017-07-30T03:17:14.727Z,81.30
2017-07-30T03:19:43.021Z,80.00
2017-07-30T03:22:10.589Z,80.00
2017-07-30T03:24:38.127Z,78.40
2017-07-30T03:27:05.700Z,77.00
2017-07-30T03:29:33.197Z,76.60
2017-07-30T03:32:00.813Z,76.00
2017-07-30T03:34:28.383Z,76.30
2017-07-30T03:36:55.940Z,76.10
2017-07-30T03:39:23.520Z,76.50
2017-07-30T03:41:51.093Z,76.50
2017-07-30T03:44:18.658Z,76.50
2017-07-30T03:46:46.417Z,76.00
2017-07-30T03:49:13.978Z,75.60
2017-07-30T03:51:41.542Z,74.00
2017-07-30T03:54:09.148Z,72.90
2017-07-30T03:56:36.674Z,72.40
2017-07-30T03:59:04.225Z,70.30
2017-07-30T04:01:31.862Z,67.40
2017-07-30T04:03:59.397Z,64.70
2017-07-30T04:06:26.932Z,62.50
2017-07-30T04:08:55.300Z,59.00
2017-07-30T04:11:22.822Z,58.30
2017-07-30T04:13:50.472Z,56.80
2017-07-30T04:16:18.072Z,55.90
2017-07-30T04:18:45.631Z,54.20
2017-07-30T04:21:13.188Z,53.40
2017-07-30T04:23:40.872Z,51.70
2017-07-30T04:26:08.429Z,50.80
2017-07-30T04:28:35.971Z,49.60
2017-07-30T04:31:03.558Z,48.70
2017-07-30T04:33:31.189Z,48.00
2017-07-30T04:35:58.672Z,47.70
2017-07-30T04:38:26.259Z,46.60
2017-07-30T04:40:53.815Z,45.90
2017-07-30T04:43:21.462Z,45.70
2017-07-30T04:45:49.065Z,44.90
2017-07-30T04:48:16.638Z,44.00
2017-07-30T04:50:44.175Z,42.50
2017-07-30T04:53:11.959Z,41.90
2017-07-30T04:55:39.513Z,41.30
2017-07-30T04:58:07.089Z,41.20
2017-07-30T05:00:34.682Z,41.50
2017-07-30T05:03:02.303Z,42.00
2017-07-30T05:05:29.860Z,42.20
2017-07-30T05:07:57.385Z,42.10
2017-07-30T05:10:24.994Z,41.20
2017-07-30T05:12:52.491Z,40.70
2017-07-30T05:15:20.117Z,40.00
2017-07-30T05:17:47.637Z,38.60
2017-07-30T05:20:15.170Z,38.30
2017-07-30T05:22:42.895Z,39.30
2017-07-30T05:25:10.548Z,39.60
2017-07-30T05:27:38.086Z,39.00
2017-07-30T05:30:05.806Z,39.20
2017-07-30T05:32:33.343Z,38.90
2017-07-30T05:35:00.884Z,38.20
2017-07-30T05:37:28.479Z,38.20
2017-07-30T05:39:56.011Z,39.00
2017-07-30T05:42:23.516Z,37.40
2017-07-30T05:44:51.327Z,37.70
2017-07-30T05:47:18.869Z,38.10
2017-07-30T05:49:46.515Z,37.90
2017-07-30T05:52:14.071Z,38.60
2017-07-30T05:54:41.582Z,37.20
2017-07-30T05:57:09.156Z,37.50
2017-07-30T05:59:37.066Z,36.60
2017-07-30T06:02:04.578Z,36.90
2017-07-30T06:04:32.128Z,37.70
2017-07-30T06:06:59.733Z,36.30
2017-07-30T06:09:27.321Z,36.20
2017-07-30T06:11:54.891Z,35.10
2017-07-30T06:14:22.472Z,33.90
2017-07-30T06:16:50.033Z,33.80
2017-07-30T06:19:17.588Z,35.30
2017-07-30T06:21:45.153Z,34.90
2017-07-30T06:24:12.770Z,36.70
2017-07-30T06:26:40.278Z,37.00
2017-07-30T06:29:07.867Z,35.90
2017-07-30T06:31:35.472Z,35.60
2017-07-30T06:34:03.091Z,34.90
2017-07-30T06:36:30.832Z,35.70
2017-07-30T06:38:58.358Z,36.30
2017-07-30T06:41:25.917Z,35.90
2017-07-30T06:43:57.674Z,35.50
2017-07-30T06:46:25.309Z,35.00
2017-07-30T06:48:52.901Z,34.80
2017-07-30T06:51:20.574Z,36.40
2017-07-30T06:53:48.177Z,36.40
2017-07-30T06:56:16.577Z,33.60
2017-07-30T06:58:47.722Z,33.50
2017-07-30T07:01:15.928Z,33.20
2017-07-30T07:03:43.500Z,33.60
2017-07-30T07:06:11.254Z,32.60
2017-07-30T07:08:38.799Z,33.20
2017-07-30T07:11:06.340Z,33.80
2017-07-30T07:13:34.074Z,32.80
2017-07-30T07:16:01.615Z,32.90
2017-07-30T07:18:29.280Z,33.60
2017-07-30T07:20:57.758Z,33.80
2017-07-30T07:23:25.274Z,32.70
2017-07-30T07:25:53.033Z,33.30
2017-07-30T07:28:20.880Z,33.00
2017-07-30T07:30:48.434Z,33.70
2017-07-30T07:33:16.735Z,35.40
2017-07-30T07:35:44.303Z,35.40
2017-07-30T07:38:11.884Z,35.00
2017-07-30T07:40:39.442Z,34.80
2017-07-30T07:43:07.076Z,35.60
2017-07-30T07:45:34.679Z,35.90
2017-07-30T07:48:02.246Z,36.20
2017-07-30T07:50:29.896Z,35.10
2017-07-30T07:52:57.715Z,36.30
2017-07-30T07:55:25.284Z,34.80
2017-07-30T07:57:53.097Z,34.10
2017-07-30T08:00:21.474Z,34.30
2017-07-30T08:02:49.159Z,34.30
2017-07-30T08:05:16.836Z,34.50
2017-07-30T08:07:44.442Z,34.90
2017-07-30T08:10:12.042Z,36.40
2017-07-30T08:12:39.658Z,37.40
2017-07-30T08:15:10.791Z,36.60
2017-07-30T08:17:38.378Z,35.20
2017-07-30T08:20:06.162Z,34.90
2017-07-30T08:22:33.714Z,34.60
2017-07-30T08:25:01.281Z,33.10
2017-07-30T08:27:28.904Z,34.40
2017-07-30T08:29:56.476Z,33.20
2017-07-30T08:32:24.037Z,32.00
2017-07-30T08:34:51.712Z,32.70
2017-07-30T08:37:19.478Z,32.60
2017-07-30T08:39:47.031Z,32.70
2017-07-30T08:42:14.636Z,32.70
2017-07-30T08:44:42.348Z,33.00
2017-07-30T08:47:09.998Z,33.00
2017-07-30T08:49:37.685Z,33.80
2017-07-30T08:52:05.324Z,34.50
2017-07-30T08:54:32.863Z,34.70
2017-07-30T08:57:00.504Z,34.60
2017-07-30T08:59:28.047Z,35.60
2017-07-30T09:01:55.906Z,36.00
2017-07-30T09:04:24.429Z,34.60
2017-07-30T09:06:52.054Z,34.60
2017-07-30T09:09:20.361Z,36.30
2017-07-30T09:11:48.032Z,35.40
2017-07-30T09:14:15.589Z,34.70
2017-07-30T09:16:43.172Z,35.30
2017-07-30T09:19:11.159Z,35.20
2017-07-30T09:21:38.870Z,34.00
2017-07-30T09:24:06.447Z,34.10
2017-07-30T09:26:34.050Z,35.10
2017-07-30T09:29:01.594Z,33.80
2017-07-30T09:31:29.118Z,33.90
2017-07-30T09:33:56.718Z,33.70
2017-07-30T09:36:24.292Z,33.50
2017-07-30T09:38:51.878Z,33.30
2017-07-30T09:41:19.472Z,33.20
2017-07-30T09:43:46.971Z,33.20
2017-07-30T09:46:14.560Z,32.90
2017-07-30T09:48:42.144Z,34.10
2017-07-30T09:51:09.687Z,33.20
2017-07-30T09:53:38.128Z,33.80
2017-07-30T09:56:05.698Z,33.80
2017-07-30T09:58:33.278Z,35.40
2017-07-30T10:01:01.600Z,34.40
2017-07-30T10:03:29.206Z,33.70
2017-07-30T10:05:56.766Z,32.40
2017-07-30T10:08:24.340Z,35.30
2017-07-30T10:10:52.711Z,34.50
2017-07-30T10:13:20.292Z,34.50
2017-07-30T10:15:47.869Z,35.80
2017-07-30T10:18:15.515Z,35.30
2017-07-30T10:20:43.107Z,34.80
2017-07-30T10:23:10.661Z,35.70
2017-07-30T10:25:38.247Z,34.60
2017-07-30T10:28:05.816Z,34.10
2017-07-30T10:30:33.316Z,34.40
2017-07-30T10:33:01.067Z,33.70
2017-07-30T10:35:28.643Z,33.50
2017-07-30T10:37:56.243Z,33.40
2017-07-30T10:40:23.897Z,33.90
2017-07-30T10:42:51.487Z,32.90
2017-07-30T10:45:19.075Z,32.80
2017-07-30T10:47:46.678Z,32.40
2017-07-30T10:50:14.314Z,33.90
2017-07-30T10:52:41.875Z,32.30
2017-07-30T10:55:09.453Z,32.70
2017-07-30T10:57:37.904Z,32.80
2017-07-30T11:00:05.564Z,33.60
2017-07-30T11:02:34.074Z,33.60
2017-07-30T11:05:01.663Z,34.10
2017-07-30T11:07:29.252Z,35.10
2017-07-30T11:09:56.830Z,34.50
2017-07-30T11:12:24.322Z,34.40
2017-07-30T11:14:51.889Z,35.10
2017-07-30T11:17:19.495Z,35.90
2017-07-30T11:19:47.050Z,34.80
2017-07-30T11:22:15.324Z,35.50
2017-07-30T11:24:42.962Z,34.50
2017-07-30T11:27:10.556Z,33.50
2017-07-30T11:29:38.294Z,34.10
2017-07-30T11:32:05.913Z,32.70
2017-07-30T11:34:33.503Z,34.40
2017-07-30T11:37:01.264Z,35.10
2017-07-30T11:39:28.810Z,34.60
2017-07-30T11:41:57.611Z,34.30
2017-07-30T11:44:25.174Z,35.40
2017-07-30T11:46:52.706Z,35.70
2017-07-30T11:49:20.289Z,37.40
2017-07-30T11:51:47.779Z,36.90
2017-07-30T11:54:15.547Z,37.90
2017-07-30T11:56:43.174Z,39.60
2017-07-30T11:59:10.732Z,38.90
2017-07-30T12:01:38.501Z,38.90
2017-07-30T12:04:05.966Z,38.70
2017-07-30T12:06:33.524Z,40.70
2017-07-30T12:09:01.262Z,39.30
2017-07-30T12:11:28.872Z,40.00
2017-07-30T12:13:56.413Z,39.40
2017-07-30T12:16:24.186Z,38.70
2017-07-30T12:18:52.302Z,40.00
2017-07-30T12:21:19.868Z,40.00
2017-07-30T12:23:47.672Z,40.00
2017-07-30T12:26:16.001Z,40.80
2017-07-30T12:28:43.610Z,41.60
2017-07-30T12:31:11.394Z,40.40
2017-07-30T12:33:38.957Z,40.60
2017-07-30T12:36:07.332Z,40.80
2017-07-30T12:38:35.029Z,40.10
2017-07-30T12:41:02.694Z,39.70
2017-07-30T12:43:30.306Z,40.80
2017-07-30T12:45:57.959Z,39.80
2017-07-30T12:48:25.602Z,39.40
2017-07-30T12:50:54.787Z,40.50
2017-07-30T12:53:22.409Z,40.00
2017-07-30T12:55:50.767Z,42.10
2017-07-30T12:58:19.209Z,42.00
2017-07-30T13:00:46.965Z,41.40
2017-07-30T13:03:14.547Z,42.20
2017-07-30T13:05:42.150Z,40.70
2017-07-30T13:08:09.933Z,42.00
2017-07-30T13:10:38.258Z,41.50
2017-07-30T13:13:05.833Z,41.40
2017-07-30T13:15:34.147Z,40.00
2017-07-30T13:18:01.732Z,41.10
2017-07-30T13:20:29.275Z,41.30
2017-07-30T13:22:56.886Z,41.70
2017-07-30T13:25:24.430Z,40.90
2017-07-30T13:27:52.052Z,41.60
2017-07-30T13:30:20.461Z,42.60
2017-07-30T13:32:48.030Z,42.60
2017-07-30T13:35:15.609Z,42.10
2017-07-30T13:37:43.219Z,42.00
2017-07-30T13:40:10.813Z,41.60
2017-07-30T13:42:38.373Z,42.00
2017-07-30T13:45:06.224Z,40.10
2017-07-30T13:47:33.775Z,41.00
2017-07-30T13:50:01.364Z,41.40
2017-07-30T13:52:29.000Z,41.90
2017-07-30T13:54:56.540Z,41.30
2017-07-30T13:57:24.916Z,41.10
2017-07-30T13:59:52.707Z,41.10
2017-07-30T14:02:20.258Z,41.00
2017-07-30T14:04:47.839Z,39.40
2017-07-30T14:07:15.479Z,40.70
2017-07-30T14:09:43.027Z,40.10
2017-07-30T14:12:10.568Z,37.90
2017-07-30T14:14:38.923Z,38.80
2017-07-30T14:17:06.483Z,38.80
2017-07-30T14:19:34.048Z,38.90
2017-07-30T14:22:01.779Z,39.70
2017-07-30T14:24:29.328Z,39.70
2017-07-30T14:26:56.862Z,39.70
2017-07-30T14:29:25.214Z,39.80
2017-07-30T14:31:52.784Z,39.70
2017-07-30T14:34:20.353Z,39.30
2017-07-30T14:36:47.958Z,39.60
2017-07-30T14:39:15.495Z,38.70
2017-07-30T14:41:43.094Z,40.40
2017-07-30T14:44:10.762Z,39.60
2017-07-30T14:46:38.327Z,38.60
2017-07-30T14:49:05.866Z,38.20
2017-07-30T14:51:33.432Z,37.90
2017-07-30T14:54:00.953Z,39.50
2017-07-30T14:56:28.589Z,39.20
2017-07-30T14:58:56.344Z,39.90
2017-07-30T15:01:23.912Z,39.40
2017-07-30T15:03:51.459Z,40.00
2017-07-30T15:06:19.071Z,40.30
2017-07-30T15:08:46.643Z,39.80
2017-07-30T15:11:14.160Z,39.90
2017-07-30T15:13:42.541Z,40.30
2017-07-30T15:16:11.141Z,40.50
2017-07-30T15:18:38.697Z,40.30
2017-07-30T15:21:07.222Z,39.80
2017-07-30T15:23:34.828Z,39.70
2017-07-30T15:26:03.441Z,39.50
2017-07-30T15:28:31.009Z,39.50
2017-07-30T15:30:58.594Z,38.70
2017-07-30T15:33:26.230Z,36.80
2017-07-30T15:35:53.804Z,37.90
2017-07-30T15:38:21.385Z,38.90
2017-07-30T15:40:48.953Z,37.60
2017-07-30T15:43:16.527Z,38.00
2017-07-30T15:45:44.079Z,38.90
2017-07-30T15:48:11.842Z,38.70
2017-07-30T15:50:39.760Z,38.80
2017-07-30T15:53:07.356Z,38.50
2017-07-30T15:55:34.929Z,38.90
2017-07-30T15:58:02.551Z,39.40
2017-07-30T16:00:30.130Z,38.70
2017-07-30T16:02:57.697Z,39.00
2017-07-30T16:05:25.325Z,39.60
2017-07-30T16:07:52.885Z,39.70
2017-07-30T16:10:21.284Z,38.40
2017-07-30T16:12:49.043Z,38.70
2017-07-30T16:15:16.642Z,39.50
2017-07-30T16:17:44.188Z,38.60
2017-07-30T16:20:12.206Z,39.40
2017-07-30T16:22:39.779Z,39.60
2017-07-30T16:25:07.347Z,38.70
2017-07-30T16:27:35.410Z,39.70
2017-07-30T16:30:03.025Z,39.80
2017-07-30T16:32:31.231Z,40.80
2017-07-30T16:34:58.978Z,40.00
2017-07-30T16:37:26.549Z,40.50
2017-07-30T16:39:54.838Z,41.40
2017-07-30T16:42:22.470Z,41.40
2017-07-30T16:44:50.863Z,41.90
2017-07-30T16:47:18.874Z,42.30
2017-07-30T16:49:46.483Z,42.50
2017-07-30T16:52:13.988Z,43.30
2017-07-30T16:54:41.550Z,43.90
2017-07-30T16:57:09.105Z,43.80
2017-07-30T16:59:36.677Z,44.90
2017-07-30T17:02:04.233Z,45.20
2017-07-30T17:04:32.031Z,44.90
2017-07-30T17:06:59.578Z,44.90
2017-07-30T17:09:27.135Z,45.70
2017-07-30T17:11:54.761Z,46.20
2017-07-30T17:14:22.277Z,46.50
2017-07-30T17:16:49.858Z,47.10
2017-07-30T17:19:18.135Z,45.10
2017-07-30T17:21:45.697Z,45.00
2017-07-30T17:24:14.030Z,45.30
2017-07-30T17:26:41.712Z,45.30
2017-07-30T17:29:09.306Z,46.00
2017-07-30T17:31:37.613Z,46.50
2017-07-30T17:34:05.357Z,46.60
2017-07-30T17:36:32.882Z,46.50
2017-07-30T17:39:05.895Z,47.20
2017-07-30T17:41:36.767Z,47.10
2017-07-30T17:44:04.344Z,48.50
2017-07-30T17:46:31.888Z,48.30
2017-07-30T17:49:01.778Z,49.10
2017-07-30T17:51:29.367Z,49.70
2017-07-30T17:53:56.950Z,53.60
2017-07-30T17:56:24.744Z,58.10
2017-07-30T17:58:52.321Z,62.50
2017-07-30T18:01:19.882Z,68.80
2017-07-30T18:03:47.486Z,69.50
2017-07-30T18:06:15.240Z,72.10
2017-07-30T18:08:42.799Z,76.40
2017-07-30T18:11:10.460Z,77.80
2017-07-30T18:13:38.962Z,77.20
2017-07-30T18:27:40.578Z,99.90
2017-07-30T18:35:50.531Z,99.90
2017-07-30T18:38:18.115Z,99.90
2017-07-30T18:40:45.690Z,99.90
2017-07-30T18:46:04.840Z,99.90
2017-07-30T18:48:39.171Z,99.90
2017-07-30T19:05:15.473Z,99.90
2017-07-30T19:07:43.074Z,98.80
2017-07-30T19:10:11.480Z,98.30
2017-07-30T19:12:40.147Z,98.60
2017-07-30T19:15:07.782Z,99.10
2017-07-30T19:17:36.187Z,99.00
2017-07-30T19:20:03.932Z,98.90
2017-07-30T19:22:32.511Z,98.40
2017-07-30T19:25:00.073Z,98.20
2017-07-30T19:27:27.678Z,98.00
2017-07-30T19:30:01.426Z,98.20
2017-07-30T19:32:29.207Z,98.90
2017-07-30T19:34:56.819Z,99.30
2017-07-30T19:37:24.378Z,99.40
2017-07-30T20:16:47.498Z,98.50
2017-07-30T20:19:15.640Z,99.20
2017-07-30T20:36:13.542Z,95.20
2017-07-30T20:38:41.093Z,94.90
2017-07-30T20:43:59.521Z,94.10
2017-07-30T20:46:27.100Z,94.00
2017-07-30T20:48:54.669Z,94.30
2017-07-30T20:51:22.392Z,94.80
2017-07-30T20:53:49.896Z,94.00
2017-07-30T20:56:17.467Z,93.70
2017-07-30T20:58:45.076Z,94.90
2017-07-30T21:01:12.697Z,95.50
2017-07-30T21:03:40.248Z,95.40
2017-07-30T21:06:07.822Z,94.40
2017-07-30T21:08:35.398Z,93.70
2017-07-30T21:11:02.954Z,91.50
2017-07-30T21:13:31.318Z,88.40
2017-07-30T21:15:58.883Z,88.50
2017-07-30T21:18:26.454Z,90.30
2017-07-30T21:20:54.017Z,87.60
2017-07-30T21:23:21.550Z,87.10
2017-07-30T21:25:49.106Z,88.10
2017-07-30T21:28:16.718Z,90.70
2017-07-30T21:30:44.307Z,91.50
2017-07-30T21:33:11.891Z,91.50
2017-07-30T21:35:40.283Z,92.40
2017-07-30T21:38:08.563Z,92.50
2017-07-30T21:40:36.126Z,92.50
2017-07-30T21:43:04.494Z,93.10
2017-07-30T21:45:32.004Z,93.00
2017-07-30T21:47:59.526Z,93.10
2017-07-30T21:50:27.115Z,93.20
2017-07-30T21:52:54.660Z,93.50
2017-07-30T21:55:22.976Z,93.00
2017-07-30T21:57:50.586Z,93.00
2017-07-30T22:00:18.184Z,93.40
2017-07-30T22:02:45.732Z,93.50
2017-07-30T22:05:13.327Z,93.50
2017-07-30T22:07:40.909Z,93.70
2017-07-30T22:10:08.457Z,93.70
2017-07-30T22:12:36.167Z,93.90
2017-07-30T22:15:03.770Z,94.20
2017-07-30T22:17:31.258Z,94.50
2017-07-30T22:19:58.996Z,94.60
2017-07-30T22:22:26.561Z,94.80
2017-07-30T22:24:54.289Z,94.40
2017-07-30T22:27:21.903Z,94.30
2017-07-30T22:29:49.466Z,94.10
2017-07-30T22:32:17.310Z,94.00
2017-07-30T22:34:44.884Z,94.40
2017-07-30T22:37:12.434Z,94.50
2017-07-30T22:39:39.992Z,94.80
2017-07-30T22:42:07.553Z,94.60
2017-07-30T22:44:35.104Z,94.80
2017-07-30T22:47:02.647Z,94.80
2017-07-30T22:49:30.189Z,95.00
2017-07-30T22:51:57.735Z,94.90
2017-07-30T22:54:25.300Z,94.90
2017-07-30T22:56:53.051Z,95.00
2017-07-30T22:59:20.581Z,95.00
2017-07-30T23:01:48.166Z,95.10
2017-07-30T23:04:16.072Z,95.10
2017-07-30T23:06:43.653Z,95.20
2017-07-30T23:09:11.190Z,95.40
2017-07-30T23:11:39.723Z,95.50
2017-07-30T23:14:07.279Z,95.30
2017-07-30T23:16:34.835Z,95.00
2017-07-30T23:19:02.541Z,95.20
2017-07-30T23:21:30.090Z,95.40
2017-07-30T23:23:57.625Z,95.50
2017-07-30T23:26:25.191Z,95.40
2017-07-30T23:28:52.743Z,95.40
2017-07-30T23:31:20.256Z,95.40
2017-07-30T23:33:48.017Z,95.50
2017-07-30T23:36:15.546Z,95.60
2017-07-30T23:38:43.856Z,95.70
2017-07-30T23:41:11.416Z,95.70
2017-07-30T23:43:38.989Z,95.70
2017-07-30T23:46:06.510Z,95.80
2017-07-30T23:48:34.068Z,96.00
2017-07-30T23:51:02.367Z,96.20
2017-07-30T23:53:29.914Z,96.20
2017-07-30T23:55:57.654Z,96.20
2017-07-30T23:58:25.893Z,96.10
